sensor_id;sensor_type;location;lat;lon;timestamp;pressure;altitude;pressure_sealevel;temperature;humidity
44765;BME280;30484;52.382;5.260;2022-09-16T00:01:20;101110.75;;;19.82;100.00
44765;BME280;30484;52.382;5.260;2022-09-16T00:03:54;101110.00;;;19.69;100.00
44765;BME280;30484;52.382;5.260;2022-09-16T00:06:25;101107.44;;;20.00;100.00
44765;BME280;30484;52.382;5.260;2022-09-16T00:08:55;101111.13;;;19.99;100.00
44765;BME280;30484;52.382;5.260;2022-09-16T00:11:24;101105.78;;;20.09;100.00
44765;BME280;30484;52.382;5.260;2022-09-16T00:13:54;101101.47;;;20.06;100.00
44765;BME280;30484;52.382;5.260;2022-09-16T00:16:26;101111.97;;;19.78;100.00
44765;BME280;30484;52.382;5.260;2022-09-16T00:18:57;101109.47;;;19.54;100.00
44765;BME280;30484;52.382;5.260;2022-09-16T00:21:29;101113.47;;;19.71;100.00
44765;BME280;30484;52.382;5.260;2022-09-16T00:23:58;101109.50;;;19.87;100.00
44765;BME280;30484;52.382;5.260;2022-09-16T00:26:26;101117.88;;;19.51;100.00
44765;BME280;30484;52.382;5.260;2022-09-16T00:28:57;101122.59;;;20.03;100.00
44765;BME280;30484;52.382;5.260;2022-09-16T00:31:25;101123.50;;;19.92;100.00
44765;BME280;30484;52.382;5.260;2022-09-16T00:33:53;101117.59;;;20.29;100.00
44765;BME280;30484;52.382;5.260;2022-09-16T00:36:21;101112.59;;;20.03;100.00
44765;BME280;30484;52.382;5.260;2022-09-16T00:38:51;101111.31;;;19.86;100.00
44765;BME280;30484;52.382;5.260;2022-09-16T00:41:23;101122.97;;;19.98;100.00
44765;BME280;30484;52.382;5.260;2022-09-16T00:43:57;101119.69;;;20.15;100.00
44765;BME280;30484;52.382;5.260;2022-09-16T00:46:31;101122.28;;;20.48;100.00
44765;BME280;30484;52.382;5.260;2022-09-16T00:49:06;101113.97;;;19.65;100.00
44765;BME280;30484;52.382;5.260;2022-09-16T00:51:38;101104.50;;;19.38;100.00
44765;BME280;30484;52.382;5.260;2022-09-16T00:54:08;101113.13;;;19.97;100.00
44765;BME280;30484;52.382;5.260;2022-09-16T00:56:39;101111.31;;;20.28;100.00
44765;BME280;30484;52.382;5.260;2022-09-16T00:59:15;101115.94;;;20.38;100.00
44765;BME280;30484;52.382;5.260;2022-09-16T01:01:46;101103.47;;;20.35;100.00
44765;BME280;30484;52.382;5.260;2022-09-16T01:04:18;101112.19;;;20.08;100.00
44765;BME280;30484;52.382;5.260;2022-09-16T01:06:49;101104.84;;;20.20;100.00
44765;BME280;30484;52.382;5.260;2022-09-16T01:09:21;101109.13;;;20.22;100.00
44765;BME280;30484;52.382;5.260;2022-09-16T01:11:50;101109.13;;;20.74;100.00
44765;BME280;30484;52.382;5.260;2022-09-16T01:14:21;101114.72;;;20.51;100.00
44765;BME280;30484;52.382;5.260;2022-09-16T01:17:15;101125.91;;;20.58;100.00
44765;BME280;30484;52.382;5.260;2022-09-16T01:20:18;101133.88;;;20.29;100.00
44765;BME280;30484;52.382;5.260;2022-09-16T01:23:22;101147.44;;;19.87;100.00
44765;BME280;30484;52.382;5.260;2022-09-16T01:26:21;101134.22;;;19.49;100.00
44765;BME280;30484;52.382;5.260;2022-09-16T01:29:40;101136.03;;;19.28;100.00
44765;BME280;30484;52.382;5.260;2022-09-16T01:32:20;101132.00;;;18.88;100.00
44765;BME280;30484;52.382;5.260;2022-09-16T01:35:01;101140.94;;;19.66;100.00
44765;BME280;30484;52.382;5.260;2022-09-16T01:37:40;101130.69;;;19.81;100.00
44765;BME280;30484;52.382;5.260;2022-09-16T01:40:21;101121.81;;;19.79;100.00
44765;BME280;30484;52.382;5.260;2022-09-16T01:42:59;101110.94;;;20.12;100.00
44765;BME280;30484;52.382;5.260;2022-09-16T01:45:37;101116.00;;;20.47;100.00
44765;BME280;30484;52.382;5.260;2022-09-16T01:48:13;101105.03;;;20.28;100.00
44765;BME280;30484;52.382;5.260;2022-09-16T01:50:56;101111.13;;;19.99;100.00
44765;BME280;30484;52.382;5.260;2022-09-16T01:53:33;101117.91;;;20.57;100.00
44765;BME280;30484;52.382;5.260;2022-09-16T01:56:05;101111.31;;;20.49;100.00
44765;BME280;30484;52.382;5.260;2022-09-16T01:58:42;101116.19;;;20.34;100.00
44765;BME280;30484;52.382;5.260;2022-09-16T02:01:16;101108.22;;;20.64;100.00
44765;BME280;30484;52.382;5.260;2022-09-16T02:03:56;101114.16;;;20.79;100.00
44765;BME280;30484;52.382;5.260;2022-09-16T02:06:29;101106.91;;;20.58;100.00
44765;BME280;30484;52.382;5.260;2022-09-16T02:09:01;101112.31;;;20.79;100.00
44765;BME280;30484;52.382;5.260;2022-09-16T02:11:32;101107.59;;;20.81;100.00
44765;BME280;30484;52.382;5.260;2022-09-16T02:14:07;101120.66;;;20.14;100.00
44765;BME280;30484;52.382;5.260;2022-09-16T02:16:40;101120.38;;;20.39;100.00
44765;BME280;30484;52.382;5.260;2022-09-16T02:19:14;101131.13;;;20.71;100.00
44765;BME280;30484;52.382;5.260;2022-09-16T02:21:45;101140.13;;;20.20;100.00
44765;BME280;30484;52.382;5.260;2022-09-16T02:24:17;101144.81;;;19.64;100.00
44765;BME280;30484;52.382;5.260;2022-09-16T02:26:51;101152.56;;;18.91;100.00
44765;BME280;30484;52.382;5.260;2022-09-16T02:29:24;101139.59;;;19.28;100.00
44765;BME280;30484;52.382;5.260;2022-09-16T02:31:57;101131.59;;;19.38;100.00
44765;BME280;30484;52.382;5.260;2022-09-16T02:34:34;101119.06;;;19.91;100.00
44765;BME280;30484;52.382;5.260;2022-09-16T02:37:08;101120.69;;;20.45;100.00
44765;BME280;30484;52.382;5.260;2022-09-16T02:39:40;101102.88;;;20.52;100.00
44765;BME280;30484;52.382;5.260;2022-09-16T02:42:12;101099.47;;;20.29;100.00
44765;BME280;30484;52.382;5.260;2022-09-16T02:44:41;101092.91;;;20.32;100.00
44765;BME280;30484;52.382;5.260;2022-09-16T02:47:15;101092.03;;;20.52;100.00
44765;BME280;30484;52.382;5.260;2022-09-16T02:49:52;101091.13;;;20.42;100.00
44765;BME280;30484;52.382;5.260;2022-09-16T02:52:28;101088.44;;;20.52;100.00
44765;BME280;30484;52.382;5.260;2022-09-16T02:55:04;101094.44;;;20.25;100.00
44765;BME280;30484;52.382;5.260;2022-09-16T02:57:37;101121.06;;;19.89;100.00
44765;BME280;30484;52.382;5.260;2022-09-16T03:00:07;101122.78;;;19.90;100.00
44765;BME280;30484;52.382;5.260;2022-09-16T03:02:36;101114.50;;;19.91;100.00
44765;BME280;30484;52.382;5.260;2022-09-16T03:05:07;101114.06;;;19.75;100.00
44765;BME280;30484;52.382;5.260;2022-09-16T03:07:35;101108.06;;;19.71;100.00
44765;BME280;30484;52.382;5.260;2022-09-16T03:10:05;101101.38;;;20.39;100.00
44765;BME280;30484;52.382;5.260;2022-09-16T03:12:49;101096.88;;;20.28;100.00
44765;BME280;30484;52.382;5.260;2022-09-16T03:15:41;101092.25;;;20.40;100.00
44765;BME280;30484;52.382;5.260;2022-09-16T03:18:26;101098.16;;;20.24;100.00
44765;BME280;30484;52.382;5.260;2022-09-16T03:21:07;101095.81;;;20.40;100.00
44765;BME280;30484;52.382;5.260;2022-09-16T03:23:45;101090.44;;;20.50;100.00
44765;BME280;30484;52.382;5.260;2022-09-16T03:26:26;101093.03;;;20.30;100.00
44765;BME280;30484;52.382;5.260;2022-09-16T03:29:06;101095.41;;;20.14;100.00
44765;BME280;30484;52.382;5.260;2022-09-16T03:31:46;101094.78;;;20.31;100.00
44765;BME280;30484;52.382;5.260;2022-09-16T03:34:22;101091.81;;;20.13;100.00
44765;BME280;30484;52.382;5.260;2022-09-16T03:37:00;101100.06;;;20.33;100.00
44765;BME280;30484;52.382;5.260;2022-09-16T03:39:30;101101.94;;;19.90;100.00
44765;BME280;30484;52.382;5.260;2022-09-16T03:42:00;101102.50;;;19.73;100.00
44765;BME280;30484;52.382;5.260;2022-09-16T03:44:34;101101.66;;;19.40;100.00
44765;BME280;30484;52.382;5.260;2022-09-16T03:47:03;101100.59;;;19.85;100.00
44765;BME280;30484;52.382;5.260;2022-09-16T03:49:32;101097.34;;;19.37;100.00
44765;BME280;30484;52.382;5.260;2022-09-16T03:52:02;101089.72;;;19.96;100.00
44765;BME280;30484;52.382;5.260;2022-09-16T03:54:31;101104.38;;;20.14;100.00
44765;BME280;30484;52.382;5.260;2022-09-16T03:57:00;101114.16;;;19.85;100.00
44765;BME280;30484;52.382;5.260;2022-09-16T03:59:28;101107.78;;;19.42;100.00
44765;BME280;30484;52.382;5.260;2022-09-16T04:01:56;101112.44;;;18.85;100.00
44765;BME280;30484;52.382;5.260;2022-09-16T04:04:25;101103.81;;;19.13;100.00
44765;BME280;30484;52.382;5.260;2022-09-16T04:06:53;101106.22;;;19.28;100.00
44765;BME280;30484;52.382;5.260;2022-09-16T04:09:22;101099.59;;;19.21;100.00
44765;BME280;30484;52.382;5.260;2022-09-16T04:11:51;101097.78;;;19.75;100.00
44765;BME280;30484;52.382;5.260;2022-09-16T04:14:19;101100.34;;;19.88;100.00
44765;BME280;30484;52.382;5.260;2022-09-16T04:16:47;101095.63;;;19.69;100.00
44765;BME280;30484;52.382;5.260;2022-09-16T04:19:21;101094.50;;;19.71;100.00
44765;BME280;30484;52.382;5.260;2022-09-16T04:21:49;101101.78;;;19.38;100.00
44765;BME280;30484;52.382;5.260;2022-09-16T04:24:17;101102.50;;;19.40;100.00
44765;BME280;30484;52.382;5.260;2022-09-16T04:26:47;101111.31;;;19.86;100.00
44765;BME280;30484;52.382;5.260;2022-09-16T04:29:15;101102.59;;;20.04;100.00
44765;BME280;30484;52.382;5.260;2022-09-16T04:31:44;101099.31;;;20.00;100.00
44765;BME280;30484;52.382;5.260;2022-09-16T04:34:12;101102.66;;;19.92;100.00
44765;BME280;30484;52.382;5.260;2022-09-16T04:36:40;101099.63;;;19.86;100.00
44765;BME280;30484;52.382;5.260;2022-09-16T04:39:11;101094.47;;;19.82;100.00
44765;BME280;30484;52.382;5.260;2022-09-16T04:41:40;101102.63;;;19.71;100.00
44765;BME280;30484;52.382;5.260;2022-09-16T04:44:10;101093.91;;;19.24;100.00
44765;BME280;30484;52.382;5.260;2022-09-16T04:46:38;101099.59;;;19.21;100.00
44765;BME280;30484;52.382;5.260;2022-09-16T04:49:06;101091.00;;;19.48;100.00
44765;BME280;30484;52.382;5.260;2022-09-16T04:51:35;101084.72;;;19.47;100.00
44765;BME280;30484;52.382;5.260;2022-09-16T04:54:03;101089.47;;;19.34;100.00
44765;BME280;30484;52.382;5.260;2022-09-16T04:56:32;101100.00;;;18.37;100.00
44765;BME280;30484;52.382;5.260;2022-09-16T04:59:04;101094.53;;;19.27;100.00
44765;BME280;30484;52.382;5.260;2022-09-16T05:01:37;101102.84;;;19.03;100.00
44765;BME280;30484;52.382;5.260;2022-09-16T05:04:08;101106.53;;;19.02;100.00
44765;BME280;30484;52.382;5.260;2022-09-16T05:06:39;101101.34;;;18.76;100.00
44765;BME280;30484;52.382;5.260;2022-09-16T05:09:09;101103.09;;;19.00;100.00
44765;BME280;30484;52.382;5.260;2022-09-16T05:11:39;101101.13;;;18.68;100.00
44765;BME280;30484;52.382;5.260;2022-09-16T05:14:13;101102.44;;;19.19;100.00
44765;BME280;30484;52.382;5.260;2022-09-16T05:16:46;101099.13;;;19.16;100.00
44765;BME280;30484;52.382;5.260;2022-09-16T05:19:15;101104.44;;;18.72;100.00
44765;BME280;30484;52.382;5.260;2022-09-16T05:21:43;101092.97;;;19.13;100.00
44765;BME280;30484;52.382;5.260;2022-09-16T05:24:16;101096.56;;;18.80;100.00
44765;BME280;30484;52.382;5.260;2022-09-16T05:26:45;101088.34;;;19.69;100.00
44765;BME280;30484;52.382;5.260;2022-09-16T05:29:15;101096.19;;;19.72;100.00
44765;BME280;30484;52.382;5.260;2022-09-16T05:31:47;101093.88;;;19.79;100.00
44765;BME280;30484;52.382;5.260;2022-09-16T05:34:19;101102.91;;;19.89;100.00
44765;BME280;30484;52.382;5.260;2022-09-16T05:36:49;101098.66;;;19.75;100.00
44765;BME280;30484;52.382;5.260;2022-09-16T05:39:20;101108.16;;;19.81;100.00
44765;BME280;30484;52.382;5.260;2022-09-16T05:41:55;101102.88;;;19.68;100.00
44765;BME280;30484;52.382;5.260;2022-09-16T05:44:24;101105.56;;;19.68;100.00
44765;BME280;30484;52.382;5.260;2022-09-16T05:46:55;101108.31;;;19.36;100.00
44765;BME280;30484;52.382;5.260;2022-09-16T05:49:23;101101.88;;;19.69;100.00
44765;BME280;30484;52.382;5.260;2022-09-16T05:51:52;101114.06;;;19.42;100.00
44765;BME280;30484;52.382;5.260;2022-09-16T05:54:21;101111.94;;;19.90;100.00
44765;BME280;30484;52.382;5.260;2022-09-16T05:56:51;101109.72;;;19.83;100.00
44765;BME280;30484;52.382;5.260;2022-09-16T05:59:19;101117.69;;;20.17;100.00
44765;BME280;30484;52.382;5.260;2022-09-16T06:01:48;101130.13;;;19.99;100.00
44765;BME280;30484;52.382;5.260;2022-09-16T06:04:18;101136.00;;;20.04;100.00
44765;BME280;30484;52.382;5.260;2022-09-16T06:06:47;101130.47;;;19.73;100.00
44765;BME280;30484;52.382;5.260;2022-09-16T06:09:17;101133.28;;;19.39;100.00
44765;BME280;30484;52.382;5.260;2022-09-16T06:11:49;101145.47;;;19.45;100.00
44765;BME280;30484;52.382;5.260;2022-09-16T06:14:18;101147.28;;;19.56;100.00
44765;BME280;30484;52.382;5.260;2022-09-16T06:16:48;101140.25;;;19.09;100.00
44765;BME280;30484;52.382;5.260;2022-09-16T06:19:18;101132.03;;;19.43;100.00
44765;BME280;30484;52.382;5.260;2022-09-16T06:21:47;101146.94;;;20.14;100.00
44765;BME280;30484;52.382;5.260;2022-09-16T06:24:16;101144.47;;;19.90;100.00
44765;BME280;30484;52.382;5.260;2022-09-16T06:26:47;101149.41;;;19.41;100.00
44765;BME280;30484;52.382;5.260;2022-09-16T06:29:15;101136.41;;;20.21;100.00
44765;BME280;30484;52.382;5.260;2022-09-16T06:31:44;101125.66;;;19.98;100.00
44765;BME280;30484;52.382;5.260;2022-09-16T06:34:15;101135.88;;;20.27;100.00
44765;BME280;30484;52.382;5.260;2022-09-16T06:36:46;101126.50;;;20.41;100.00
44765;BME280;30484;52.382;5.260;2022-09-16T06:39:15;101132.31;;;20.05;100.00
44765;BME280;30484;52.382;5.260;2022-09-16T06:41:44;101127.38;;;20.41;100.00
44765;BME280;30484;52.382;5.260;2022-09-16T06:44:13;101122.59;;;19.70;100.00
44765;BME280;30484;52.382;5.260;2022-09-16T06:46:41;101130.47;;;20.27;100.00
44765;BME280;30484;52.382;5.260;2022-09-16T06:49:10;101116.69;;;20.18;100.00
44765;BME280;30484;52.382;5.260;2022-09-16T06:51:39;101116.25;;;20.44;100.00
44765;BME280;30484;52.382;5.260;2022-09-16T06:54:09;101116.81;;;19.96;100.00
44765;BME280;30484;52.382;5.260;2022-09-16T06:56:38;101121.91;;;19.89;100.00
44765;BME280;30484;52.382;5.260;2022-09-16T06:59:08;101114.38;;;20.14;100.00
44765;BME280;30484;52.382;5.260;2022-09-16T07:01:37;101110.91;;;20.33;100.00
44765;BME280;30484;52.382;5.260;2022-09-16T07:04:08;101120.09;;;20.42;100.00
44765;BME280;30484;52.382;5.260;2022-09-16T07:06:39;101116.19;;;19.71;100.00
44765;BME280;30484;52.382;5.260;2022-09-16T07:09:29;101115.03;;;20.27;100.00
44765;BME280;30484;52.382;5.260;2022-09-16T07:11:58;101112.84;;;20.52;100.00
44765;BME280;30484;52.382;5.260;2022-09-16T07:14:27;101118.94;;;21.06;100.00
44765;BME280;30484;52.382;5.260;2022-09-16T07:16:58;101112.13;;;20.71;100.00
44765;BME280;30484;52.382;5.260;2022-09-16T07:19:27;101115.06;;;21.59;100.00
44765;BME280;30484;52.382;5.260;2022-09-16T07:21:56;101127.81;;;21.78;100.00
44765;BME280;30484;52.382;5.260;2022-09-16T07:24:24;101135.03;;;21.38;100.00
44765;BME280;30484;52.382;5.260;2022-09-16T07:26:54;101138.03;;;21.35;100.00
44765;BME280;30484;52.382;5.260;2022-09-16T07:29:22;101130.44;;;21.19;100.00
44765;BME280;30484;52.382;5.260;2022-09-16T07:31:50;101127.06;;;20.86;100.00
44765;BME280;30484;52.382;5.260;2022-09-16T07:34:19;101145.44;;;21.14;100.00
44765;BME280;30484;52.382;5.260;2022-09-16T07:36:48;101142.06;;;20.60;100.00
44765;BME280;30484;52.382;5.260;2022-09-16T07:39:17;101141.72;;;21.25;100.00
44765;BME280;30484;52.382;5.260;2022-09-16T07:41:47;101144.56;;;21.13;100.00
44765;BME280;30484;52.382;5.260;2022-09-16T07:44:18;101147.81;;;20.97;100.00
44765;BME280;30484;52.382;5.260;2022-09-16T07:46:47;101160.00;;;21.13;100.00
44765;BME280;30484;52.382;5.260;2022-09-16T07:49:17;101175.03;;;21.77;100.00
44765;BME280;30484;52.382;5.260;2022-09-16T07:51:46;101170.28;;;20.68;100.00
44765;BME280;30484;52.382;5.260;2022-09-16T07:54:16;101176.03;;;19.79;100.00
44765;BME280;30484;52.382;5.260;2022-09-16T07:56:45;101173.75;;;20.59;100.00
44765;BME280;30484;52.382;5.260;2022-09-16T07:59:18;101165.59;;;20.49;100.00
44765;BME280;30484;52.382;5.260;2022-09-16T08:01:47;101166.25;;;20.94;100.00
44765;BME280;30484;52.382;5.260;2022-09-16T08:04:17;101162.41;;;20.23;100.00
44765;BME280;30484;52.382;5.260;2022-09-16T08:06:46;101167.09;;;20.94;100.00
44765;BME280;30484;52.382;5.260;2022-09-16T08:09:15;101165.97;;;20.45;100.00
44765;BME280;30484;52.382;5.260;2022-09-16T08:12:05;101171.00;;;20.71;100.00
44765;BME280;30484;52.382;5.260;2022-09-16T08:14:37;101163.44;;;20.53;100.00
44765;BME280;30484;52.382;5.260;2022-09-16T08:17:06;101169.47;;;20.57;100.00
44765;BME280;30484;52.382;5.260;2022-09-16T08:19:34;101176.06;;;21.26;100.00
44765;BME280;30484;52.382;5.260;2022-09-16T08:22:04;101182.16;;;21.59;100.00
44765;BME280;30484;52.382;5.260;2022-09-16T08:24:32;101186.53;;;21.40;100.00
44765;BME280;30484;52.382;5.260;2022-09-16T08:27:00;101196.81;;;21.27;100.00
44765;BME280;30484;52.382;5.260;2022-09-16T08:29:29;101213.63;;;20.59;100.00
44765;BME280;30484;52.382;5.260;2022-09-16T08:31:59;101216.34;;;21.11;100.00
44765;BME280;30484;52.382;5.260;2022-09-16T08:34:27;101200.28;;;20.98;100.00
44765;BME280;30484;52.382;5.260;2022-09-16T08:36:55;101189.47;;;21.17;100.00
44765;BME280;30484;52.382;5.260;2022-09-16T08:39:23;101189.84;;;21.03;100.00
44765;BME280;30484;52.382;5.260;2022-09-16T08:42:14;101198.53;;;21.28;100.00
44765;BME280;30484;52.382;5.260;2022-09-16T08:45:00;101200.47;;;20.54;100.00
44765;BME280;30484;52.382;5.260;2022-09-16T08:47:44;101191.06;;;20.79;100.00
44765;BME280;30484;52.382;5.260;2022-09-16T08:50:22;101187.66;;;20.45;100.00
44765;BME280;30484;52.382;5.260;2022-09-16T08:52:51;101186.03;;;19.67;100.00
44765;BME280;30484;52.382;5.260;2022-09-16T08:55:26;101195.16;;;20.52;100.00
44765;BME280;30484;52.382;5.260;2022-09-16T08:58:01;101203.91;;;19.81;100.00
44765;BME280;30484;52.382;5.260;2022-09-16T09:00:30;101200.31;;;20.34;100.00
44765;BME280;30484;52.382;5.260;2022-09-16T09:03:13;101179.66;;;19.69;100.00
44765;BME280;30484;52.382;5.260;2022-09-16T09:05:49;101190.56;;;19.35;100.00
44765;BME280;30484;52.382;5.260;2022-09-16T09:08:32;101190.97;;;19.19;100.00
44765;BME280;30484;52.382;5.260;2022-09-16T09:11:11;101182.81;;;19.74;100.00
44765;BME280;30484;52.382;5.260;2022-09-16T09:14:01;101200.31;;;19.26;100.00
44765;BME280;30484;52.382;5.260;2022-09-16T09:16:43;101202.63;;;19.97;100.00
44765;BME280;30484;52.382;5.260;2022-09-16T09:19:30;101203.63;;;19.85;100.00
44765;BME280;30484;52.382;5.260;2022-09-16T09:25:20;101196.84;;;19.24;100.00
44765;BME280;30484;52.382;5.260;2022-09-16T09:28:00;101196.00;;;19.78;100.00
44765;BME280;30484;52.382;5.260;2022-09-16T09:30:33;101195.53;;;19.62;100.00
44765;BME280;30484;52.382;5.260;2022-09-16T09:33:19;101195.63;;;20.15;100.00
44765;BME280;30484;52.382;5.260;2022-09-16T09:36:39;101214.28;;;20.09;100.00
44765;BME280;30484;52.382;5.260;2022-09-16T09:39:45;101195.59;;;20.79;100.00
44765;BME280;30484;52.382;5.260;2022-09-16T09:42:20;101209.31;;;20.35;100.00
44765;BME280;30484;52.382;5.260;2022-09-16T09:44:57;101219.03;;;20.16;100.00
44765;BME280;30484;52.382;5.260;2022-09-16T09:47:34;101206.84;;;20.11;100.00
44765;BME280;30484;52.382;5.260;2022-09-16T09:50:15;101225.34;;;20.17;100.00
44765;BME280;30484;52.382;5.260;2022-09-16T09:52:53;101232.47;;;19.74;100.00
44765;BME280;30484;52.382;5.260;2022-09-16T09:55:26;101235.38;;;20.26;100.00
44765;BME280;30484;52.382;5.260;2022-09-16T09:58:02;101236.13;;;19.18;100.00
44765;BME280;30484;52.382;5.260;2022-09-16T10:00:32;101234.22;;;20.40;100.00
44765;BME280;30484;52.382;5.260;2022-09-16T10:03:04;101238.22;;;19.14;100.00
44765;BME280;30484;52.382;5.260;2022-09-16T10:05:33;101233.88;;;20.33;100.00
44765;BME280;30484;52.382;5.260;2022-09-16T10:08:13;101243.75;;;20.34;100.00
44765;BME280;30484;52.382;5.260;2022-09-16T10:10:48;101258.09;;;20.25;100.00
44765;BME280;30484;52.382;5.260;2022-09-16T10:13:19;101272.94;;;20.42;100.00
44765;BME280;30484;52.382;5.260;2022-09-16T10:15:51;101270.09;;;19.56;100.00
44765;BME280;30484;52.382;5.260;2022-09-16T10:18:27;101252.34;;;19.63;100.00
44765;BME280;30484;52.382;5.260;2022-09-16T10:21:03;101235.59;;;19.81;100.00
44765;BME280;30484;52.382;5.260;2022-09-16T10:23:34;101226.63;;;20.02;100.00
44765;BME280;30484;52.382;5.260;2022-09-16T10:26:17;101220.72;;;19.96;100.00
44765;BME280;30484;52.382;5.260;2022-09-16T10:28:59;101221.97;;;20.46;100.00
44765;BME280;30484;52.382;5.260;2022-09-16T10:31:33;101214.81;;;21.18;100.00
44765;BME280;30484;52.382;5.260;2022-09-16T10:34:14;101201.13;;;21.29;100.00
44765;BME280;30484;52.382;5.260;2022-09-16T10:36:45;101209.53;;;21.26;100.00
44765;BME280;30484;52.382;5.260;2022-09-16T10:39:24;101191.91;;;21.61;100.00
44765;BME280;30484;52.382;5.260;2022-09-16T10:41:52;101194.22;;;22.34;100.00
44765;BME280;30484;52.382;5.260;2022-09-16T10:44:25;101185.63;;;21.80;100.00
44765;BME280;30484;52.382;5.260;2022-09-16T10:46:57;101183.31;;;21.66;100.00
44765;BME280;30484;52.382;5.260;2022-09-16T10:49:36;101179.88;;;21.93;100.00
44765;BME280;30484;52.382;5.260;2022-09-16T10:52:16;101183.19;;;22.16;100.00
44765;BME280;30484;52.382;5.260;2022-09-16T10:54:46;101178.75;;;22.35;100.00
44765;BME280;30484;52.382;5.260;2022-09-16T10:57:25;101179.34;;;22.09;100.00
44765;BME280;30484;52.382;5.260;2022-09-16T11:00:01;101175.22;;;23.37;100.00
44765;BME280;30484;52.382;5.260;2022-09-16T11:03:06;101173.47;;;22.81;100.00
44765;BME280;30484;52.382;5.260;2022-09-16T11:05:52;101175.50;;;23.16;100.00
44765;BME280;30484;52.382;5.260;2022-09-16T11:08:42;101177.81;;;23.39;100.00
44765;BME280;30484;52.382;5.260;2022-09-16T11:11:27;101172.19;;;23.13;100.00
44765;BME280;30484;52.382;5.260;2022-09-16T11:14:08;101178.75;;;23.48;100.00
44765;BME280;30484;52.382;5.260;2022-09-16T11:17:11;101177.19;;;23.45;100.00
44765;BME280;30484;52.382;5.260;2022-09-16T11:19:56;101178.78;;;23.10;100.00
44765;BME280;30484;52.382;5.260;2022-09-16T11:22:38;101188.13;;;23.35;100.00
44765;BME280;30484;52.382;5.260;2022-09-16T11:25:35;101185.94;;;23.21;100.00
44765;BME280;30484;52.382;5.260;2022-09-16T11:28:41;101183.72;;;22.59;100.00
44765;BME280;30484;52.382;5.260;2022-09-16T11:31:21;101177.50;;;22.77;100.00
44765;BME280;30484;52.382;5.260;2022-09-16T11:34:01;101181.63;;;23.18;100.00
44765;BME280;30484;52.382;5.260;2022-09-16T11:36:48;101192.66;;;22.89;100.00
44765;BME280;30484;52.382;5.260;2022-09-16T11:39:54;101194.75;;;23.33;100.00
44765;BME280;30484;52.382;5.260;2022-09-16T11:42:32;101182.00;;;22.96;100.00
44765;BME280;30484;52.382;5.260;2022-09-16T11:45:19;101187.28;;;22.60;100.00
44765;BME280;30484;52.382;5.260;2022-09-16T11:48:14;101193.06;;;22.37;100.00
44765;BME280;30484;52.382;5.260;2022-09-16T11:50:52;101184.03;;;22.93;100.00
44765;BME280;30484;52.382;5.260;2022-09-16T11:53:56;101180.31;;;23.86;100.00
44765;BME280;30484;52.382;5.260;2022-09-16T11:56:35;101186.19;;;23.27;100.00
44765;BME280;30484;52.382;5.260;2022-09-16T11:59:14;101188.13;;;23.35;100.00
44765;BME280;30484;52.382;5.260;2022-09-16T12:01:50;101195.59;;;22.58;100.00
44765;BME280;30484;52.382;5.260;2022-09-16T12:04:27;101192.22;;;22.36;100.00
44765;BME280;30484;52.382;5.260;2022-09-16T12:07:13;101190.59;;;22.63;100.00
44765;BME280;30484;52.382;5.260;2022-09-16T12:10:04;101184.72;;;22.96;100.00
44765;BME280;30484;52.382;5.260;2022-09-16T12:12:48;101174.31;;;22.81;100.00
44765;BME280;30484;52.382;5.260;2022-09-16T12:15:23;101172.03;;;22.10;100.00
44765;BME280;30484;52.382;5.260;2022-09-16T12:17:56;101181.50;;;22.72;100.00
44765;BME280;30484;52.382;5.260;2022-09-16T12:20:30;101176.91;;;22.73;100.00
44765;BME280;30484;52.382;5.260;2022-09-16T12:23:08;101172.13;;;22.37;100.00
44765;BME280;30484;52.382;5.260;2022-09-16T12:25:44;101177.69;;;22.55;100.00
44765;BME280;30484;52.382;5.260;2022-09-16T12:28:15;101163.25;;;23.66;100.00
44765;BME280;30484;52.382;5.260;2022-09-16T12:30:58;101168.91;;;23.37;100.00
44765;BME280;30484;52.382;5.260;2022-09-16T12:33:35;101172.88;;;23.42;100.00
44765;BME280;30484;52.382;5.260;2022-09-16T12:36:11;101170.38;;;24.92;100.00
44765;BME280;30484;52.382;5.260;2022-09-16T12:38:46;101173.34;;;24.02;100.00
44765;BME280;30484;52.382;5.260;2022-09-16T12:41:39;101164.25;;;24.19;100.00
44765;BME280;30484;52.382;5.260;2022-09-16T12:44:29;101171.94;;;24.42;100.00
44765;BME280;30484;52.382;5.260;2022-09-16T12:47:45;101167.19;;;25.05;100.00
44765;BME280;30484;52.382;5.260;2022-09-16T12:51:06;101185.63;;;25.37;100.00
44765;BME280;30484;52.382;5.260;2022-09-16T12:54:14;101174.03;;;25.52;100.00
44765;BME280;30484;52.382;5.260;2022-09-16T12:57:09;101177.69;;;25.26;100.00
44765;BME280;30484;52.382;5.260;2022-09-16T13:00:12;101185.00;;;25.25;100.00
44765;BME280;30484;52.382;5.260;2022-09-16T13:02:45;101179.56;;;25.84;100.00
44765;BME280;30484;52.382;5.260;2022-09-16T13:05:23;101173.75;;;25.20;100.00
44765;BME280;30484;52.382;5.260;2022-09-16T13:08:03;101182.75;;;25.47;100.00
44765;BME280;30484;52.382;5.260;2022-09-16T13:10:34;101170.88;;;26.06;100.00
44765;BME280;30484;52.382;5.260;2022-09-16T13:13:31;101180.09;;;25.29;100.00
44765;BME280;30484;52.382;5.260;2022-09-16T13:16:04;101177.09;;;25.06;100.00
44765;BME280;30484;52.382;5.260;2022-09-16T13:18:42;101175.75;;;25.61;100.00
44765;BME280;30484;52.382;5.260;2022-09-16T13:21:23;101169.91;;;24.70;98.26
44765;BME280;30484;52.382;5.260;2022-09-16T13:24:00;101177.84;;;25.92;100.00
44765;BME280;30484;52.382;5.260;2022-09-16T13:26:40;101167.97;;;26.15;100.00